createdAt,value
2023-03-12T00:02:20.393Z,8.2
2023-03-12T00:07:19.924Z,8.2
2023-03-12T00:12:19.530Z,8.2
2023-03-12T00:17:19.004Z,8.2
2023-03-12T00:22:21.057Z,8.2
2023-03-12T00:27:18.125Z,8.2
2023-03-12T00:32:19.730Z,8.2
2023-03-12T00:37:19.226Z,8.2
2023-03-12T00:42:18.909Z,8.2
2023-03-12T00:47:16.374Z,8.2
2023-03-12T00:52:15.981Z,8.3
2023-03-12T00:57:15.553Z,8.4
2023-03-12T01:02:17.225Z,8.4
2023-03-12T01:07:14.604Z,8.5
2023-03-12T01:12:14.282Z,8.5
2023-03-12T01:17:13.834Z,8.6
2023-03-12T01:22:13.316Z,8.4
2023-03-12T01:27:13.196Z,8.4
2023-03-12T01:32:12.460Z,8.3
2023-03-12T01:37:12.143Z,8.4
2023-03-12T01:42:11.416Z,8.2
2023-03-12T01:47:10.873Z,8.2
2023-03-12T01:52:10.357Z,8.1
2023-03-12T01:57:09.896Z,8.1
2023-03-12T02:02:09.317Z,8.1
2023-03-12T02:07:08.871Z,8.1
2023-03-12T02:12:08.510Z,8.0
2023-03-12T02:17:08.421Z,8.0
2023-03-12T02:22:08.059Z,8.1
2023-03-12T02:32:06.796Z,8.1
2023-03-12T02:37:06.060Z,8.0
2023-03-12T02:42:05.409Z,7.9
2023-03-12T02:52:04.424Z,8.0
2023-03-12T02:57:03.846Z,8.1
2023-03-12T03:02:03.399Z,8.0
2023-03-12T03:07:02.840Z,8.0
2023-03-12T03:12:02.346Z,7.9
2023-03-12T03:22:01.317Z,7.8
2023-03-12T03:27:00.788Z,7.8
2023-03-12T03:36:59.828Z,7.7
2023-03-12T03:41:59.312Z,7.6
2023-03-12T03:46:58.898Z,7.5
2023-03-12T03:51:58.331Z,7.4
2023-03-12T03:56:57.866Z,7.4
2023-03-12T04:01:57.287Z,7.4
2023-03-12T04:06:56.813Z,7.4
2023-03-12T04:11:56.235Z,7.2
2023-03-12T04:16:55.877Z,7.2
2023-03-12T04:21:55.165Z,7.2
2023-03-12T04:26:54.650Z,7.2
2023-03-12T04:31:54.136Z,7.1
2023-03-12T04:36:53.628Z,7.2
2023-03-12T04:41:53.135Z,7.1
2023-03-12T04:46:52.709Z,7.1
2023-03-12T04:56:51.572Z,7.2
2023-03-12T05:06:50.670Z,7.2
2023-03-12T05:11:49.990Z,7.1
2023-03-12T05:16:49.429Z,7.2
2023-03-12T05:21:48.810Z,7.1
2023-03-12T05:26:48.361Z,6.9
2023-03-12T05:31:47.831Z,6.9
2023-03-12T05:36:47.304Z,6.9
2023-03-12T05:41:46.768Z,6.9
2023-03-12T05:46:48.529Z,6.9
2023-03-12T05:51:45.681Z,7.1
2023-03-12T05:56:47.175Z,7.1
2023-03-12T06:01:46.764Z,7.1
2023-03-12T06:06:44.124Z,7.2
2023-03-12T06:11:45.543Z,7.2
2023-03-12T06:16:45.090Z,7.1
2023-03-12T06:21:42.441Z,7.1
2023-03-12T06:26:41.912Z,7.1
2023-03-12T06:31:41.415Z,7.1
2023-03-12T06:46:39.841Z,7.0
2023-03-12T06:51:39.200Z,6.9
2023-03-12T06:56:38.928Z,7.1
2023-03-12T07:01:38.085Z,7.0
2023-03-12T07:06:40.092Z,7.0
2023-03-12T07:11:36.992Z,7.1
2023-03-12T07:21:35.956Z,7.2
2023-03-12T07:26:35.358Z,7.4
2023-03-12T07:31:34.922Z,7.4
2023-03-12T07:36:34.433Z,7.6
2023-03-12T07:41:33.813Z,7.7
2023-03-12T07:46:35.390Z,7.8
2023-03-12T07:51:32.817Z,7.8
2023-03-12T07:56:34.966Z,8.0
2023-03-12T08:01:32.062Z,8.2
2023-03-12T08:11:31.033Z,8.4
2023-03-12T08:16:30.658Z,8.3
2023-03-12T08:21:30.159Z,8.5
2023-03-12T08:26:29.713Z,8.5
2023-03-12T08:31:29.310Z,8.6
2023-03-12T08:36:31.380Z,8.7
2023-03-12T08:41:28.405Z,8.9
2023-03-12T08:46:28.004Z,9.1
2023-03-12T08:51:27.612Z,9.2
2023-03-12T08:56:29.313Z,9.4
2023-03-12T09:01:26.858Z,9.4
2023-03-12T09:06:26.526Z,9.4
2023-03-12T09:11:26.030Z,9.4
2023-03-12T09:16:25.820Z,9.5
2023-03-12T09:21:25.327Z,9.7
2023-03-12T09:31:24.576Z,9.8
2023-03-12T09:36:24.219Z,9.7
2023-03-12T09:41:23.867Z,9.6
2023-03-12T09:46:25.938Z,9.8
2023-03-12T09:51:23.210Z,9.9
2023-03-12T09:56:22.663Z,10.0
2023-03-12T10:01:22.315Z,10.0
2023-03-12T10:06:21.816Z,9.9
2023-03-12T10:11:21.464Z,10.0
2023-03-12T10:16:21.045Z,10.0
2023-03-12T10:21:20.782Z,10.1
2023-03-12T10:26:20.319Z,10.1
2023-03-12T10:31:20.096Z,10.3
2023-03-12T10:36:19.636Z,10.8
2023-03-12T10:41:19.715Z,11.1
2023-03-12T10:46:19.034Z,11.2
2023-03-12T10:51:18.735Z,11.3
2023-03-12T10:56:18.398Z,11.5
2023-03-12T11:01:18.297Z,11.7
2023-03-12T11:06:17.989Z,11.6
2023-03-12T11:11:17.671Z,11.8
2023-03-12T11:16:17.419Z,11.6
2023-03-12T11:21:17.204Z,12.0
2023-03-12T11:26:16.898Z,12.1
2023-03-12T11:31:16.874Z,12.4
2023-03-12T11:36:16.455Z,12.2
2023-03-12T11:41:18.439Z,12.1
2023-03-12T11:46:15.967Z,12.6
2023-03-12T11:51:15.749Z,12.6
2023-03-12T11:56:15.528Z,12.4
2023-03-12T12:01:15.430Z,13.0
2023-03-12T12:06:15.146Z,12.6
2023-03-12T12:11:15.002Z,12.3
2023-03-12T12:16:14.792Z,13.1
2023-03-12T12:21:14.587Z,13.1
2023-03-12T12:26:14.408Z,13.6
2023-03-12T12:31:14.271Z,13.6
2023-03-12T12:36:14.135Z,12.9
2023-03-12T12:41:13.972Z,13.2
2023-03-12T12:46:14.019Z,12.9
2023-03-12T12:56:15.391Z,13.4
2023-03-12T13:01:13.494Z,13.5
2023-03-12T13:06:13.308Z,13.4
2023-03-12T13:11:19.544Z,13.9
2023-03-12T13:16:13.152Z,13.2
2023-03-12T13:21:13.045Z,13.1
2023-03-12T13:26:12.930Z,13.0
2023-03-12T13:31:12.794Z,12.7
2023-03-12T13:36:12.729Z,12.8
2023-03-12T13:41:12.395Z,12.6
2023-03-12T13:46:12.244Z,12.9
2023-03-12T13:51:11.992Z,12.6
2023-03-12T13:56:11.890Z,12.4
2023-03-12T14:01:11.695Z,12.4
2023-03-12T14:06:14.000Z,12.3
2023-03-12T14:11:11.307Z,12.4
2023-03-12T14:16:11.263Z,12.2
2023-03-12T14:26:12.695Z,12.1
2023-03-12T14:31:10.491Z,12.0
2023-03-12T14:36:10.159Z,11.8
2023-03-12T14:41:09.918Z,11.8
2023-03-12T14:46:09.729Z,11.6
2023-03-12T14:51:09.417Z,11.5
2023-03-12T14:56:09.137Z,11.5
2023-03-12T15:01:08.825Z,11.4
2023-03-12T15:06:08.597Z,11.4
2023-03-12T15:11:08.389Z,11.4
2023-03-12T15:16:08.150Z,11.4
2023-03-12T15:21:07.747Z,11.3
2023-03-12T15:26:07.834Z,11.2
2023-03-12T15:31:07.411Z,11.2
2023-03-12T15:36:07.018Z,11.2
2023-03-12T15:41:06.649Z,11.1
2023-03-12T15:46:06.513Z,11.1
2023-03-12T15:51:06.032Z,11.1
2023-03-12T16:01:05.531Z,11.1
2023-03-12T16:06:05.141Z,11.0
2023-03-12T16:11:04.826Z,11.0
2023-03-12T16:16:04.556Z,10.9
2023-03-12T16:21:04.227Z,10.9
2023-03-12T16:26:03.954Z,10.9
2023-03-12T16:36:03.378Z,10.7
2023-03-12T16:41:03.026Z,10.7
2023-03-12T16:46:02.982Z,10.6
2023-03-12T16:51:02.442Z,10.6
2023-03-12T16:56:02.203Z,10.5
2023-03-12T17:01:01.993Z,10.6
2023-03-12T17:06:01.658Z,10.5
2023-03-12T17:11:01.447Z,10.5
2023-03-12T17:16:03.425Z,10.5
2023-03-12T17:21:01.135Z,10.5
2023-03-12T17:26:00.526Z,10.5
2023-03-12T17:31:00.464Z,10.5
2023-03-12T17:45:59.561Z,10.4
2023-03-12T17:50:59.005Z,10.3
2023-03-12T17:55:58.732Z,10.2
2023-03-12T18:00:58.393Z,10.2
2023-03-12T18:05:58.112Z,10.2
2023-03-12T18:10:57.705Z,10.1
2023-03-12T18:15:57.508Z,10.1
2023-03-12T18:20:57.006Z,10.1
2023-03-12T18:25:56.607Z,10.0
2023-03-12T18:30:56.242Z,10.0
2023-03-12T18:35:55.880Z,10.0
2023-03-12T18:40:55.445Z,9.9
2023-03-12T18:45:55.053Z,10.0
2023-03-12T18:50:54.592Z,10.0
2023-03-12T18:55:54.186Z,10.0
2023-03-12T19:00:53.859Z,10.0
2023-03-12T19:05:53.638Z,10.0
2023-03-12T19:10:53.060Z,10.0
2023-03-12T19:15:52.905Z,9.9
2023-03-12T19:20:52.330Z,10.0
2023-03-12T19:25:51.962Z,9.9
2023-03-12T19:35:51.196Z,9.9
2023-03-12T19:40:50.664Z,9.9
2023-03-12T19:45:50.377Z,10.0
2023-03-12T19:50:49.886Z,10.0
2023-03-12T19:55:49.510Z,9.9
2023-03-12T20:05:48.602Z,10.0
2023-03-12T20:10:50.649Z,10.0
2023-03-12T20:15:47.767Z,10.1
2023-03-12T20:20:47.312Z,10.1
2023-03-12T20:25:46.939Z,10.1
2023-03-12T20:30:46.518Z,10.0
2023-03-12T20:35:47.206Z,10.1
2023-03-12T20:40:46.068Z,10.2
2023-03-12T20:45:45.342Z,10.2
2023-03-12T20:50:44.988Z,10.3
2023-03-12T21:00:44.245Z,10.5
2023-03-12T21:05:43.847Z,10.6
2023-03-12T21:10:43.516Z,10.8
2023-03-12T21:15:43.085Z,10.8
2023-03-12T21:20:42.807Z,10.9
2023-03-12T21:25:42.447Z,10.9
2023-03-12T21:30:42.136Z,10.9
2023-03-12T21:35:41.888Z,10.9
2023-03-12T21:40:41.537Z,10.9
2023-03-12T21:45:41.035Z,11.1
2023-03-12T21:50:43.111Z,11.1
2023-03-12T21:55:40.374Z,11.1
2023-03-12T22:00:40.132Z,11.1
2023-03-12T22:05:39.703Z,11.1
2023-03-12T22:10:42.627Z,11.1
2023-03-12T22:15:39.041Z,11.1
2023-03-12T22:20:38.689Z,11.1
2023-03-12T22:25:38.325Z,11.2
2023-03-12T22:30:38.032Z,11.2
2023-03-12T22:35:37.678Z,11.1
2023-03-12T22:40:37.441Z,11.2
2023-03-12T22:45:37.088Z,11.2
2023-03-12T22:50:36.959Z,11.2
2023-03-12T22:55:36.513Z,11.2
2023-03-12T23:00:36.219Z,11.2
2023-03-12T23:05:35.938Z,11.4
2023-03-12T23:10:35.658Z,11.4
2023-03-12T23:15:41.354Z,11.4
2023-03-12T23:20:36.833Z,11.5
2023-03-12T23:25:34.572Z,11.5
2023-03-12T23:30:34.237Z,11.5
2023-03-12T23:35:33.989Z,11.5
2023-03-12T23:40:33.641Z,11.5
2023-03-12T23:45:33.482Z,11.5
2023-03-12T23:50:33.023Z,11.5
2023-03-12T23:55:35.050Z,11.6
